Time;durP1;ratioP1;P1;durP2;ratioP2;P2;SDS_P1;SDS_P2;PMS_P1;PMS_P2;Temp;Humidity;BMP_temperature;BMP_pressure;BME280_temperature;BME280_humidity;BME280_pressure;Samples;Min_cycle;Max_cycle;Signal;HPM_P1;HPM_P2
2023/07/09 00:00:13;;;;;;;16.90;13.55;;;25.70;76.50;;;;;;4956286;28;20502;-80
2023/07/09 00:02:39;;;;;;;22.60;15.57;;;25.70;75.90;;;;;;4975273;28;20034;-79
2023/07/09 00:05:09;;;;;;;20.17;13.87;;;25.70;76.40;;;;;;4975718;28;20037;-80
2023/07/09 00:07:35;;;;;;;17.52;13.30;;;25.70;76.40;;;;;;4962982;28;20034;-79
2023/07/09 00:10:02;;;;;;;18.23;14.57;;;25.70;76.70;;;;;;4957489;28;20101;-79
2023/07/09 00:12:28;;;;;;;18.73;14.68;;;25.70;76.90;;;;;;4976587;28;20019;-79
2023/07/09 00:14:54;;;;;;;18.97;14.20;;;25.60;76.80;;;;;;4959584;28;20034;-79
2023/07/09 00:17:26;;;;;;;16.15;13.13;;;25.60;77.30;;;;;;4959295;28;20043;-79
2023/07/09 00:19:53;;;;;;;19.25;12.73;;;25.60;76.80;;;;;;4976894;28;20042;-79
2023/07/09 00:22:19;;;;;;;22.27;14.32;;;25.60;76.90;;;;;;4943463;28;20038;-79
2023/07/09 00:24:50;;;;;;;18.95;14.68;;;25.60;76.90;;;;;;4959300;28;20393;-80
2023/07/09 00:27:21;;;;;;;21.08;14.10;;;25.60;77.60;;;;;;4959518;28;20558;-79
2023/07/09 00:29:48;;;;;;;17.05;13.85;;;25.50;76.80;;;;;;4959467;28;20034;-80
2023/07/09 00:32:15;;;;;;;16.33;14.52;;;25.50;77.20;;;;;;4959146;28;20045;-80
2023/07/09 00:34:51;;;;;;;21.23;13.38;;;25.50;77.30;;;;;;4976793;28;20113;-80
2023/07/09 00:37:25;;;;;;;18.60;15.00;;;25.50;77.10;;;;;;4958292;28;20658;-79
2023/07/09 00:39:51;;;;;;;17.83;12.63;;;25.50;77.20;;;;;;4958888;28;20046;-79
2023/07/09 00:42:23;;;;;;;26.47;13.37;;;25.40;76.70;;;;;;4958605;28;20038;-79
2023/07/09 00:44:54;;;;;;;22.80;14.55;;;25.40;76.60;;;;;;4975821;28;20282;-79
2023/07/09 00:47:32;;;;;;;28.90;14.45;;;25.40;77.20;;;;;;4958326;28;20035;-79
2023/07/09 00:50:36;;;;;;;20.83;14.32;;;25.30;76.90;;;;;;4958624;28;20373;-80
2023/07/09 00:53:12;;;;;;;17.33;13.73;;;25.30;76.80;;;;;;4976467;28;20022;-80
2023/07/09 00:55:44;;;;;;;19.17;13.77;;;25.30;76.60;;;;;;4942796;28;20041;-79
2023/07/09 00:58:15;;;;;;;16.42;13.35;;;25.30;77.00;;;;;;4958839;28;20045;-79
2023/07/09 01:00:53;;;;;;;20.70;13.10;;;25.30;77.80;;;;;;4968782;28;20061;-80
2023/07/09 01:03:35;;;;;;;16.13;13.32;;;25.30;78.30;;;;;;4966187;28;20042;-79
2023/07/09 01:06:02;;;;;;;17.83;13.35;;;25.20;77.80;;;;;;4942943;28;20034;-80
2023/07/09 01:08:34;;;;;;;18.60;13.90;;;25.20;78.50;;;;;;4958537;28;20038;-79
2023/07/09 01:11:00;;;;;;;16.33;13.38;;;25.10;78.30;;;;;;4958494;28;20026;-80
2023/07/09 01:13:35;;;;;;;22.00;14.53;;;25.10;78.70;;;;;;4942248;28;20038;-80
2023/07/09 01:16:01;;;;;;;17.83;12.57;;;25.10;78.40;;;;;;4958273;28;20038;-79
2023/07/09 01:18:26;;;;;;;19.37;12.77;;;25.10;78.70;;;;;;4958014;28;20029;-80
2023/07/09 01:21:07;;;;;;;18.60;12.63;;;25.10;78.70;;;;;;4975329;28;20034;-79
2023/07/09 01:23:32;;;;;;;19.75;11.95;;;25.10;77.30;;;;;;4958063;28;20038;-80
2023/07/09 01:26:00;;;;;;;18.25;12.48;;;25.00;78.20;;;;;;4975420;28;20042;-80
2023/07/09 01:28:25;;;;;;;13.53;11.97;;;25.00;78.20;;;;;;4957954;28;20031;-80
2023/07/09 01:30:53;;;;;;;16.07;11.77;;;25.00;77.90;;;;;;4958273;28;20034;-79
2023/07/09 01:33:22;;;;;;;14.63;11.25;;;25.00;78.10;;;;;;4952522;28;20022;-79
2023/07/09 01:35:48;;;;;;;19.77;12.48;;;24.90;78.10;;;;;;4977830;28;20052;-79
2023/07/09 01:38:14;;;;;;;14.53;12.13;;;24.90;78.00;;;;;;4960630;28;20562;-79
2023/07/09 01:40:40;;;;;;;14.10;11.57;;;24.90;78.20;;;;;;4958285;28;20033;-79
2023/07/09 01:43:07;;;;;;;20.17;11.60;;;24.80;78.20;;;;;;4975541;28;20027;-79
2023/07/09 01:45:35;;;;;;;14.55;11.23;;;24.80;78.60;;;;;;4942271;28;20113;-79
2023/07/09 01:48:01;;;;;;;13.85;10.85;;;24.80;78.90;;;;;;4977374;28;20435;-79
2023/07/09 01:50:27;;;;;;;19.65;12.30;;;24.70;79.30;;;;;;4971363;28;20034;-79
2023/07/09 01:52:54;;;;;;;17.83;12.37;;;24.70;79.20;;;;;;4975145;28;20018;-80
2023/07/09 01:55:20;;;;;;;16.05;11.60;;;24.70;79.10;;;;;;4957771;28;20026;-79
2023/07/09 01:57:46;;;;;;;17.17;13.00;;;24.70;79.50;;;;;;4957586;28;20035;-80
2023/07/09 02:00:15;;;;;;;13.77;11.67;;;24.70;79.10;;;;;;4992206;23;20104;-82
2023/07/09 02:02:45;;;;;;;17.05;11.88;;;24.70;79.30;;;;;;4967714;28;20026;-82
2023/07/09 02:05:17;;;;;;;15.77;11.93;;;24.70;80.10;;;;;;4969332;28;20019;-82
2023/07/09 02:07:44;;;;;;;15.40;11.20;;;24.60;79.80;;;;;;4969028;28;20030;-81
2023/07/09 02:10:11;;;;;;;17.42;11.57;;;24.60;80.40;;;;;;4945908;28;20029;-82
2023/07/09 02:12:37;;;;;;;15.50;11.65;;;24.50;80.20;;;;;;4957312;28;20037;-81
2023/07/09 02:15:03;;;;;;;14.20;11.43;;;24.50;80.20;;;;;;4957108;28;20034;-82
2023/07/09 02:17:29;;;;;;;17.75;12.40;;;24.50;79.90;;;;;;4974553;28;20119;-82
2023/07/09 02:19:55;;;;;;;17.37;11.83;;;24.50;79.90;;;;;;4941443;28;20043;-82
2023/07/09 02:22:21;;;;;;;17.20;11.37;;;24.50;81.10;;;;;;4941069;28;20031;-81
2023/07/09 02:24:47;;;;;;;14.50;11.80;;;24.40;80.60;;;;;;4957416;28;20089;-81
2023/07/09 02:27:16;;;;;;;18.13;11.85;;;24.40;80.80;;;;;;4974703;28;20030;-82
2023/07/09 02:29:42;;;;;;;17.08;12.27;;;24.40;80.90;;;;;;4956808;28;20030;-82
2023/07/09 02:32:08;;;;;;;16.73;13.10;;;24.30;81.30;;;;;;4940545;28;20030;-81
2023/07/09 02:34:35;;;;;;;15.75;13.05;;;24.30;81.10;;;;;;4966554;28;20384;-81
2023/07/09 02:37:01;;;;;;;16.30;12.50;;;24.30;81.30;;;;;;4976543;28;20066;-82
2023/07/09 02:39:27;;;;;;;17.52;12.20;;;24.30;81.30;;;;;;4943978;28;20081;-82
2023/07/09 02:41:53;;;;;;;16.30;12.70;;;24.30;81.40;;;;;;4957457;28;20027;-82
2023/07/09 02:44:20;;;;;;;18.80;12.75;;;24.20;82.10;;;;;;4957239;28;20042;-82
2023/07/09 02:46:46;;;;;;;15.37;11.63;;;24.10;82.50;;;;;;4956479;28;20026;-82
2023/07/09 02:49:13;;;;;;;16.17;12.43;;;24.10;82.50;;;;;;4940603;28;20038;-81
2023/07/09 02:51:39;;;;;;;15.85;11.40;;;24.10;82.90;;;;;;4957137;28;20502;-81
2023/07/09 02:54:06;;;;;;;19.80;12.32;;;24.00;83.20;;;;;;4955671;28;20023;-81
2023/07/09 02:56:34;;;;;;;14.30;11.43;;;24.00;83.30;;;;;;4975093;28;20050;-81
2023/07/09 02:59:00;;;;;;;16.38;11.70;;;24.00;83.50;;;;;;4988603;28;20588;-81
2023/07/09 03:01:26;;;;;;;20.17;12.10;;;24.00;83.60;;;;;;4956441;28;20027;-81
2023/07/09 03:03:59;;;;;;;17.88;12.10;;;24.00;84.10;;;;;;4956241;28;20031;-82
2023/07/09 03:06:26;;;;;;;19.83;12.63;;;24.00;84.10;;;;;;4956809;28;20039;-82
2023/07/09 03:08:52;;;;;;;17.08;13.10;;;23.90;84.10;;;;;;4980477;28;20471;-82
2023/07/09 03:11:20;;;;;;;19.17;13.55;;;23.90;84.10;;;;;;4960091;28;20031;-81
2023/07/09 03:13:47;;;;;;;17.42;13.75;;;23.90;84.40;;;;;;4963513;28;20027;-82
2023/07/09 03:16:13;;;;;;;21.50;13.55;;;23.90;84.50;;;;;;4956104;28;20106;-81
2023/07/09 03:18:39;;;;;;;19.33;14.50;;;23.80;84.70;;;;;;4973381;28;20027;-81
2023/07/09 03:21:05;;;;;;;16.63;14.47;;;23.80;84.70;;;;;;4956473;28;20135;-81
2023/07/09 03:23:31;;;;;;;18.57;13.73;;;23.80;85.50;;;;;;4956973;28;20049;-82
2023/07/09 03:25:57;;;;;;;18.23;13.57;;;23.80;85.30;;;;;;4974480;28;20122;-81
2023/07/09 03:28:23;;;;;;;21.53;14.63;;;23.80;85.30;;;;;;4956222;28;20626;-81
2023/07/09 03:30:52;;;;;;;18.67;14.05;;;23.70;85.20;;;;;;4940055;28;20031;-81
2023/07/09 03:33:18;;;;;;;22.17;14.30;;;23.80;85.50;;;;;;4956779;28;20128;-82
2023/07/09 03:35:44;;;;;;;22.27;13.47;;;23.80;85.70;;;;;;4943289;28;20476;-82
2023/07/09 03:38:11;;;;;;;18.42;12.70;;;23.70;85.50;;;;;;4959662;28;20090;-81
2023/07/09 03:40:37;;;;;;;19.30;13.32;;;23.70;85.90;;;;;;4977299;28;20475;-82
2023/07/09 03:43:04;;;;;;;19.75;13.63;;;23.70;87.10;;;;;;4976807;28;20034;-82
2023/07/09 03:45:30;;;;;;;22.80;13.45;;;23.60;87.80;;;;;;4966113;28;20041;-82
2023/07/09 03:47:56;;;;;;;17.98;13.98;;;23.60;87.90;;;;;;4986182;28;20094;-82
2023/07/09 03:50:22;;;;;;;17.17;13.43;;;23.60;87.80;;;;;;4984765;28;20062;-82
2023/07/09 03:52:48;;;;;;;17.13;13.87;;;23.60;87.80;;;;;;4966979;28;20444;-82
2023/07/09 03:55:14;;;;;;;22.90;13.40;;;23.60;87.80;;;;;;4985958;28;20407;-82
2023/07/09 03:57:40;;;;;;;20.87;13.53;;;23.60;87.70;;;;;;4985697;28;20079;-81
2023/07/09 04:00:10;;;;;;;19.90;13.88;;;23.60;88.30;;;;;;4950506;28;20294;-82
2023/07/09 04:02:43;;;;;;;17.60;13.57;;;23.60;88.50;;;;;;4984196;28;20121;-82
2023/07/09 04:05:09;;;;;;;19.60;14.57;;;23.60;88.40;;;;;;4966655;28;20039;-82
2023/07/09 04:07:35;;;;;;;18.67;15.43;;;23.60;88.40;;;;;;4985528;28;20045;-82
2023/07/09 04:10:01;;;;;;;22.50;15.13;;;23.60;88.70;;;;;;4985079;28;20062;-82
2023/07/09 04:12:27;;;;;;;22.17;15.23;;;23.60;88.90;;;;;;4984817;28;20038;-83
2023/07/09 04:14:53;;;;;;;17.73;15.27;;;23.60;89.40;;;;;;4967711;28;20018;-82
2023/07/09 04:17:19;;;;;;;21.60;15.47;;;23.60;89.40;;;;;;4967198;28;20133;-82
2023/07/09 04:19:44;;;;;;;16.23;13.67;;;23.50;89.70;;;;;;4985472;28;20050;-82
2023/07/09 04:22:11;;;;;;;19.67;13.57;;;23.50;90.10;;;;;;4968597;28;20502;-82
2023/07/09 04:24:37;;;;;;;20.55;15.65;;;23.50;90.30;;;;;;4971663;28;20039;-83
2023/07/09 04:27:03;;;;;;;24.63;16.57;;;23.40;90.20;;;;;;4968942;28;20428;-82
2023/07/09 04:29:30;;;;;;;25.65;17.35;;;23.40;90.10;;;;;;4985480;28;20049;-82
2023/07/09 04:31:56;;;;;;;;;;;23.40;90.10;;;;;;4968553;28;20077;-82
2023/07/09 04:34:22;;;;;;;28.92;19.70;;;23.40;90.10;;;;;;4985674;28;19910;-82
2023/07/09 04:36:48;;;;;;;22.35;18.48;;;23.40;90.10;;;;;;4967726;28;21176;-82
2023/07/09 04:39:14;;;;;;;26.83;18.77;;;23.40;90.10;;;;;;4967539;28;20031;-82
2023/07/09 04:41:40;;;;;;;24.35;17.60;;;23.40;90.20;;;;;;4967389;28;20044;-82
2023/07/09 04:44:06;;;;;;;26.50;18.67;;;23.50;90.20;;;;;;4985122;28;20125;-82
2023/07/09 04:46:32;;;;;;;27.03;17.73;;;23.60;90.20;;;;;;4985757;28;20062;-82
2023/07/09 04:49:00;;;;;;;23.67;18.50;;;23.70;90.30;;;;;;4952042;28;20506;-82
2023/07/09 04:51:26;;;;;;;25.23;19.30;;;23.70;90.30;;;;;;4968039;28;20034;-82
2023/07/09 04:53:52;;;;;;;27.27;18.63;;;23.70;90.20;;;;;;4968146;28;20054;-83
2023/07/09 04:56:18;;;;;;;23.13;19.23;;;23.70;90.20;;;;;;4966312;28;20400;-82
2023/07/09 04:58:44;;;;;;;25.02;19.63;;;23.70;90.20;;;;;;4982584;28;20029;-82
2023/07/09 05:01:10;;;;;;;22.00;15.97;;;23.70;90.30;;;;;;4965204;28;20022;-82
2023/07/09 05:03:36;;;;;;;23.27;17.48;;;23.70;90.30;;;;;;4982467;28;20122;-82
2023/07/09 05:06:03;;;;;;;23.05;17.15;;;23.70;90.40;;;;;;4983447;28;20034;-81
2023/07/09 05:08:29;;;;;;;;;;;23.80;90.40;;;;;;4982791;28;20031;-82
2023/07/09 05:10:57;;;;;;;18.40;16.13;;;23.90;89.10;;;;;;4965120;28;20368;-82
2023/07/09 05:13:23;;;;;;;20.92;16.33;;;23.90;90.30;;;;;;4983333;28;20019;-82
2023/07/09 05:15:50;;;;;;;23.42;16.38;;;23.90;90.40;;;;;;4965172;28;20027;-82
2023/07/09 05:18:17;;;;;;;20.85;16.17;;;24.00;90.10;;;;;;4965626;28;20031;-83
2023/07/09 05:20:42;;;;;;;;;;;24.00;90.30;;;;;;4971334;28;20034;-83
2023/07/09 05:23:09;;;;;;;18.42;15.07;;;24.10;90.20;;;;;;4970536;28;20299;-83
2023/07/09 05:25:35;;;;;;;16.95;14.80;;;24.10;90.60;;;;;;4989956;28;20065;-82
2023/07/09 05:28:02;;;;;;;23.20;16.10;;;24.20;91.00;;;;;;4972673;28;20503;-82
2023/07/09 05:30:28;;;;;;;17.60;14.85;;;24.30;91.50;;;;;;4985315;28;20046;-82
2023/07/09 05:32:57;;;;;;;20.40;14.50;;;24.30;91.50;;;;;;4979072;28;20027;-82
2023/07/09 05:35:25;;;;;;;20.95;14.80;;;24.30;91.80;;;;;;4983030;28;20102;-83
2023/07/09 05:37:54;;;;;;;16.45;13.70;;;24.40;91.90;;;;;;4987007;28;20030;-82
2023/07/09 05:40:21;;;;;;;18.17;14.40;;;24.50;92.00;;;;;;4971939;28;20035;-82
2023/07/09 05:42:48;;;;;;;15.40;11.02;;;24.50;91.90;;;;;;4949449;28;20086;-82
2023/07/09 05:45:15;;;;;;;13.05;9.70;;;24.60;90.90;;;;;;4964333;28;20039;-82
2023/07/09 05:47:41;;;;;;;12.73;9.48;;;24.70;90.10;;;;;;4985496;28;20027;-82
2023/07/09 05:50:08;;;;;;;14.20;9.57;;;24.70;90.10;;;;;;4968058;28;20069;-82
2023/07/09 05:52:34;;;;;;;14.82;10.02;;;24.80;89.50;;;;;;4967659;28;20257;-81
2023/07/09 05:55:00;;;;;;;16.25;9.98;;;24.80;89.50;;;;;;4977860;28;20097;-82
2023/07/09 05:57:26;;;;;;;13.17;9.87;;;24.80;89.40;;;;;;4996940;28;20026;-82
2023/07/09 05:59:52;;;;;;;15.88;9.45;;;24.90;88.00;;;;;;4975991;28;20385;-82
2023/07/09 06:02:21;;;;;;;12.87;10.03;;;24.90;88.30;;;;;;4965446;28;20042;-82
2023/07/09 06:04:51;;;;;;;15.63;10.65;;;25.00;88.10;;;;;;4949197;28;20039;-82
2023/07/09 06:07:18;;;;;;;11.88;9.55;;;25.10;87.70;;;;;;4983710;28;20094;-82
2023/07/09 06:09:45;;;;;;;16.08;8.35;;;25.10;87.00;;;;;;4983884;28;20026;-82
2023/07/09 06:12:12;;;;;;;13.45;8.88;;;25.20;85.50;;;;;;4983826;28;20030;-82
2023/07/09 06:14:38;;;;;;;12.25;7.93;;;25.20;85.90;;;;;;4965940;28;20037;-82
2023/07/09 06:17:04;;;;;;;11.20;7.73;;;25.30;84.50;;;;;;4965482;28;20517;-82
2023/07/09 06:19:31;;;;;;;12.57;7.80;;;25.40;84.00;;;;;;4984222;28;20050;-82
2023/07/09 06:21:56;;;;;;;16.83;8.63;;;25.40;84.30;;;;;;4983346;28;20388;-82
2023/07/09 06:24:23;;;;;;;13.63;8.57;;;25.50;85.70;;;;;;4966757;28;20039;-83
2023/07/09 06:26:49;;;;;;;12.90;7.90;;;25.60;85.30;;;;;;4962898;28;20023;-83
2023/07/09 06:29:15;;;;;;;12.90;8.07;;;25.60;83.20;;;;;;5000932;28;20098;-82
2023/07/09 06:31:42;;;;;;;15.53;9.07;;;25.60;83.50;;;;;;4970340;28;20031;-82
2023/07/09 06:34:09;;;;;;;14.25;7.53;;;25.70;82.00;;;;;;4966220;28;20038;-81
2023/07/09 06:36:35;;;;;;;10.93;8.00;;;25.70;81.50;;;;;;4965997;28;20038;-82
2023/07/09 06:39:01;;;;;;;10.52;7.95;;;25.80;82.50;;;;;;4966056;28;20054;-82
2023/07/09 06:41:27;;;;;;;14.77;8.02;;;25.90;81.40;;;;;;4949400;28;20030;-82
2023/07/09 06:43:53;;;;;;;12.90;7.43;;;25.90;80.90;;;;;;4949513;28;20033;-82
2023/07/09 06:46:19;;;;;;;16.37;8.17;;;25.90;80.70;;;;;;4981253;28;20023;-82
2023/07/09 06:48:45;;;;;;;13.55;8.15;;;25.90;82.00;;;;;;4976617;28;20035;-82
2023/07/09 06:51:11;;;;;;;14.63;8.00;;;26.00;81.90;;;;;;4981821;28;20026;-82
2023/07/09 06:53:37;;;;;;;9.10;6.67;;;26.00;80.30;;;;;;4966654;28;20038;-82
2023/07/09 06:56:03;;;;;;;12.27;7.20;;;26.10;80.80;;;;;;4985488;28;20090;-82
2023/07/09 06:58:31;;;;;;;9.75;7.15;;;26.10;79.40;;;;;;4979968;28;20030;-82
2023/07/09 07:00:57;;;;;;;12.40;7.47;;;26.20;78.60;;;;;;4965818;28;20041;-83
2023/07/09 07:03:24;;;;;;;14.83;9.00;;;26.20;80.00;;;;;;4983673;28;20066;-83
2023/07/09 07:05:53;;;;;;;13.75;9.40;;;26.20;78.90;;;;;;4950428;28;20038;-82
2023/07/09 07:08:20;;;;;;;12.20;7.85;;;26.30;79.30;;;;;;4983402;28;20034;-82
2023/07/09 07:10:49;;;;;;;6.78;5.63;;;26.30;79.50;;;;;;4966203;28;20078;-82
2023/07/09 07:13:15;;;;;;;9.32;6.78;;;26.40;78.40;;;;;;4983610;28;20399;-82
2023/07/09 07:15:41;;;;;;;7.97;6.55;;;26.50;79.10;;;;;;4972442;28;20029;-82
2023/07/09 07:18:08;;;;;;;13.00;7.82;;;26.50;78.90;;;;;;4973578;28;20027;-82
2023/07/09 07:20:34;;;;;;;15.25;6.78;;;26.60;78.80;;;;;;4966505;28;20062;-83
2023/07/09 07:23:00;;;;;;;13.35;10.10;;;26.60;79.00;;;;;;4983809;28;20117;-82
2023/07/09 07:25:25;;;;;;;20.00;10.90;;;26.70;80.40;;;;;;4966700;28;20055;-82
2023/07/09 07:27:51;;;;;;;13.33;10.03;;;26.70;81.50;;;;;;4965436;28;20038;-83
2023/07/09 07:30:17;;;;;;;12.80;9.70;;;26.80;81.10;;;;;;4964512;28;20031;-82
2023/07/09 07:32:46;;;;;;;14.23;9.83;;;26.80;79.60;;;;;;4971898;28;20061;-83
2023/07/09 07:35:13;;;;;;;12.98;8.93;;;26.80;80.10;;;;;;4999710;28;20022;-83
2023/07/09 07:37:40;;;;;;;19.17;10.48;;;26.80;80.00;;;;;;4969625;28;20065;-83
2023/07/09 07:40:06;;;;;;;;;;;26.90;80.20;;;;;;4935878;29;20031;-83
2023/07/09 07:42:32;;;;;;;14.50;10.40;;;26.90;80.60;;;;;;4975072;28;19973;-83
2023/07/09 07:44:58;;;;;;;19.90;10.93;;;26.90;80.40;;;;;;4945363;28;20018;-83
2023/07/09 07:47:25;;;;;;;16.52;10.07;;;27.00;79.70;;;;;;4977663;28;20423;-83
2023/07/09 07:49:51;;;;;;;11.93;9.07;;;27.00;80.10;;;;;;4960982;28;20035;-84
2023/07/09 07:52:17;;;;;;;12.07;9.50;;;27.10;79.70;;;;;;4960769;28;20105;-83
2023/07/09 07:54:43;;;;;;;14.43;10.93;;;27.10;79.60;;;;;;4943450;28;20113;-83
2023/07/09 07:57:09;;;;;;;13.57;9.68;;;27.20;79.30;;;;;;4959112;28;20034;-83
2023/07/09 07:59:35;;;;;;;12.85;9.23;;;27.30;77.90;;;;;;4972124;28;20042;-85
2023/07/09 08:02:02;;;;;;;;;;;27.30;77.30;;;;;;4979178;28;20423;-84
2023/07/09 08:04:28;;;;;;;14.68;9.85;;;27.30;77.00;;;;;;4977518;28;19961;-85
2023/07/09 08:06:54;;;;;;;15.43;9.55;;;27.30;76.90;;;;;;4978814;28;20027;-84
2023/07/09 08:14:46;;;;;;;15.65;9.15;;;27.50;74.40;;;;;;5606630;23;20426;-78
2023/07/09 08:17:12;;;;;;;12.82;8.85;;;27.60;72.90;;;;;;4987156;28;20023;-79
2023/07/09 08:19:52;;;;;;;17.47;10.00;;;27.60;72.00;;;;;;4989124;28;20137;-80
2023/07/09 08:22:21;;;;;;;13.80;9.23;;;27.70;71.70;;;;;;4991193;28;20114;-80
2023/07/09 08:24:51;;;;;;;10.45;7.68;;;27.70;71.30;;;;;;4966704;28;20026;-79
2023/07/09 08:27:18;;;;;;;14.55;10.05;;;27.80;71.60;;;;;;4973638;28;20511;-79
2023/07/09 08:29:44;;;;;;;11.82;7.65;;;27.80;71.00;;;;;;5011148;23;20141;-85
2023/07/09 08:32:11;;;;;;;19.65;9.43;;;27.90;71.20;;;;;;4959069;28;20058;-85
2023/07/09 08:34:39;;;;;;;17.02;9.95;;;27.90;71.70;;;;;;4960793;28;20023;-84
2023/07/09 08:37:06;;;;;;;13.77;10.35;;;28.00;70.80;;;;;;4978858;28;20042;-85
2023/07/09 08:39:32;;;;;;;14.40;9.48;;;28.00;70.30;;;;;;4960862;28;20045;-84
2023/07/09 08:42:17;;;;;;;14.47;9.97;;;28.00;70.60;;;;;;4961413;28;20434;-84
2023/07/09 08:45:17;;;;;;;20.48;10.38;;;28.10;70.30;;;;;;4960702;28;20035;-85
2023/07/09 08:48:01;;;;;;;20.13;10.43;;;28.20;71.00;;;;;;4945145;28;20054;-85
2023/07/09 08:50:50;;;;;;;16.40;10.02;;;28.20;71.80;;;;;;4961838;28;20090;-85
2023/07/09 08:53:41;;;;;;;14.57;10.23;;;28.30;71.50;;;;;;4978438;28;20121;-86
2023/07/09 08:56:10;;;;;;;13.13;9.45;;;28.30;71.20;;;;;;4912767;28;20039;-85
2023/07/09 08:58:38;;;;;;;15.48;9.60;;;28.40;71.70;;;;;;4960505;28;20023;-84
2023/07/09 09:01:12;;;;;;;13.73;10.25;;;28.40;70.70;;;;;;4960751;28;20031;-84
2023/07/09 09:03:50;;;;;;;15.75;9.70;;;28.50;70.90;;;;;;4978215;28;20039;-85
2023/07/09 09:06:30;;;;;;;17.73;9.65;;;28.60;69.70;;;;;;4960756;28;20042;-84
2023/07/09 09:09:32;;;;;;;19.48;9.93;;;28.70;69.90;;;;;;4960535;28;20133;-84
2023/07/09 09:12:21;;;;;;;11.63;9.00;;;28.70;70.00;;;;;;4971575;28;20472;-85
2023/07/09 09:14:58;;;;;;;11.88;8.57;;;28.70;71.50;;;;;;4965101;28;20054;-85
2023/07/09 09:17:28;;;;;;;10.82;8.85;;;28.90;70.30;;;;;;4980649;28;20070;-85
2023/07/09 09:20:08;;;;;;;17.25;9.68;;;29.00;69.30;;;;;;4960861;28;20129;-84
2023/07/09 09:22:46;;;;;;;16.75;9.60;;;29.00;68.20;;;;;;4978852;28;20451;-85
2023/07/09 09:25:15;;;;;;;12.27;8.57;;;29.00;68.90;;;;;;4978295;28;20384;-85
2023/07/09 09:27:41;;;;;;;27.40;9.88;;;29.00;69.80;;;;;;4959792;28;20050;-82
2023/07/09 09:30:20;;;;;;;13.57;7.97;;;29.00;69.00;;;;;;4977947;28;20029;-85
2023/07/09 09:32:55;;;;;;;12.70;7.68;;;29.10;69.80;;;;;;4978499;28;20018;-85
2023/07/09 09:35:34;;;;;;;12.02;8.25;;;29.10;70.00;;;;;;4960401;28;20403;-85
2023/07/09 09:38:01;;;;;;;12.63;9.15;;;29.30;68.70;;;;;;4977917;28;20476;-84
2023/07/09 09:40:33;;;;;;;11.57;8.05;;;29.40;68.60;;;;;;4977708;28;20054;-85
2023/07/09 09:43:00;;;;;;;14.45;9.00;;;29.40;69.00;;;;;;4977704;28;20483;-85
2023/07/09 09:45:38;;;;;;;12.38;9.38;;;29.40;68.50;;;;;;4960518;28;20030;-84
2023/07/09 09:48:19;;;;;;;11.40;8.35;;;29.40;68.50;;;;;;4944232;28;20031;-85
2023/07/09 09:50:46;;;;;;;13.73;8.60;;;29.50;70.00;;;;;;4961074;28;20110;-85
2023/07/09 09:53:23;;;;;;;16.10;10.30;;;29.60;70.20;;;;;;4977673;28;20023;-85
2023/07/09 09:55:50;;;;;;;14.80;11.48;;;29.60;69.50;;;;;;4978644;28;20142;-85
2023/07/09 09:58:17;;;;;;;13.75;10.00;;;29.60;69.50;;;;;;4959594;28;20054;-84
2023/07/09 10:00:55;;;;;;;15.35;10.68;;;29.60;71.40;;;;;;4977862;28;20126;-84
2023/07/09 10:03:21;;;;;;;;;;;29.70;69.90;;;;;;4977910;28;20042;-85
2023/07/09 10:05:57;;;;;;;17.48;10.85;;;29.60;70.30;;;;;;4977947;28;19913;-84
2023/07/09 10:08:48;;;;;;;14.98;10.52;;;29.70;70.50;;;;;;4977884;28;20043;-84
2023/07/09 10:11:43;;;;;;;12.63;10.02;;;29.70;70.40;;;;;;4959764;28;20043;-85
2023/07/09 10:14:30;;;;;;;12.60;9.68;;;29.70;71.60;;;;;;4951402;28;20039;-84
2023/07/09 10:17:13;;;;;;;11.80;8.60;;;29.90;71.10;;;;;;4978176;28;20031;-85
2023/07/09 10:19:45;;;;;;;16.40;9.30;;;30.00;70.50;;;;;;4959543;28;20498;-84
2023/07/09 10:22:22;;;;;;;9.90;7.57;;;30.00;70.30;;;;;;4960417;28;20035;-84
2023/07/09 10:25:02;;;;;;;11.07;7.85;;;30.20;68.50;;;;;;4977223;28;20090;-84
2023/07/09 10:27:31;;;;;;;13.07;7.28;;;30.30;66.40;;;;;;4959814;28;20038;-85
2023/07/09 10:30:15;;;;;;;11.02;8.57;;;30.40;67.70;;;;;;4976835;28;20041;-85
2023/07/09 10:33:00;;;;;;;13.82;8.25;;;30.40;66.10;;;;;;4977019;28;20372;-85
2023/07/09 10:35:57;;;;;;;14.23;8.40;;;30.40;66.80;;;;;;4977373;28;20026;-85
2023/07/09 10:38:41;;;;;;;12.43;8.25;;;30.50;67.30;;;;;;4959189;28;20026;-85
2023/07/09 10:41:10;;;;;;;13.38;6.55;;;30.60;67.90;;;;;;4977061;28;20499;-84
2023/07/09 10:43:44;;;;;;;9.02;6.82;;;30.60;66.90;;;;;;4959787;28;20144;-85
2023/07/09 10:46:16;;;;;;;7.57;6.05;;;30.70;65.40;;;;;;4977068;28;20510;-84
2023/07/09 10:48:48;;;;;;;12.30;6.97;;;30.70;64.40;;;;;;4977517;28;20022;-85
2023/07/09 10:51:23;;;;;;;11.20;7.40;;;30.80;65.80;;;;;;4977966;28;20109;-85
2023/07/09 10:54:14;;;;;;;10.63;8.00;;;30.90;66.40;;;;;;4980241;28;20058;-85
2023/07/09 10:56:42;;;;;;;11.90;7.82;;;31.00;66.30;;;;;;4938267;28;20086;-85
2023/07/09 10:59:30;;;;;;;11.18;7.45;;;31.10;66.00;;;;;;4980140;28;20030;-84
2023/07/09 11:02:06;;;;;;;10.13;7.32;;;31.10;66.30;;;;;;4980081;28;20041;-85
2023/07/09 11:04:54;;;;;;;9.35;6.10;;;31.20;64.80;;;;;;4977405;28;20038;-85
2023/07/09 11:07:44;;;;;;;9.60;6.28;;;31.20;65.00;;;;;;4960876;28;20031;-85
2023/07/09 11:10:29;;;;;;;14.45;7.45;;;31.30;64.70;;;;;;4980063;28;20070;-85
2023/07/09 11:13:05;;;;;;;10.35;7.22;;;31.50;64.70;;;;;;4965210;28;20511;-85
2023/07/09 11:15:45;;;;;;;19.88;7.15;;;31.60;63.60;;;;;;4980684;28;20023;-85
2023/07/09 11:18:21;;;;;;;16.33;6.10;;;31.60;62.20;;;;;;4978968;28;20081;-85
2023/07/09 11:20:58;;;;;;;7.75;5.35;;;31.60;59.70;;;;;;4961411;28;20129;-85
2023/07/09 11:23:25;;;;;;;10.85;5.93;;;31.60;59.60;;;;;;4959930;28;20492;-84
2023/07/09 11:26:13;;;;;;;10.27;6.25;;;31.60;61.50;;;;;;4978270;28;20023;-85
2023/07/09 11:28:41;;;;;;;15.80;7.75;;;31.70;61.50;;;;;;4978598;28;20031;-85
2023/07/09 11:31:16;;;;;;;10.02;7.22;;;31.80;61.60;;;;;;4978644;28;20365;-85
2023/07/09 11:33:48;;;;;;;9.82;7.50;;;31.80;61.70;;;;;;4961369;28;20031;-84
2023/07/09 11:36:25;;;;;;;8.95;5.93;;;31.80;62.60;;;;;;4979852;28;20131;-84
2023/07/09 11:38:53;;;;;;;8.07;6.00;;;31.90;61.00;;;;;;4974808;28;20083;-84
2023/07/09 11:41:35;;;;;;;12.00;7.47;;;32.00;60.90;;;;;;4958803;29;20027;-84
2023/07/09 11:44:16;;;;;;;10.70;6.35;;;32.00;60.40;;;;;;4967999;28;20443;-86
2023/07/09 11:46:53;;;;;;;11.15;5.93;;;32.10;60.10;;;;;;4960971;28;20046;-85
2023/07/09 11:49:23;;;;;;;10.93;7.97;;;32.20;60.20;;;;;;4961516;28;20054;-85
2023/07/09 11:51:54;;;;;;;9.40;7.18;;;32.20;60.00;;;;;;4955439;29;20062;-84
2023/07/09 11:54:21;;;;;;;13.18;7.22;;;32.30;61.00;;;;;;4964494;28;20027;-85
2023/07/09 11:56:58;;;;;;;17.70;7.72;;;32.50;60.20;;;;;;4957017;28;20054;-84
2023/07/09 11:59:24;;;;;;;11.40;7.25;;;32.60;59.90;;;;;;4945184;28;20054;-86
2023/07/09 12:01:54;;;;;;;11.30;6.97;;;32.60;60.00;;;;;;4962353;28;20027;-84
2023/07/09 12:04:23;;;;;;;10.48;6.32;;;32.50;59.30;;;;;;4978109;28;20495;-84
2023/07/09 12:06:51;;;;;;;10.05;6.60;;;32.50;60.50;;;;;;4981912;28;20460;-84
2023/07/09 12:09:20;;;;;;;10.93;6.22;;;32.70;59.50;;;;;;4983574;28;20438;-85
2023/07/09 12:11:50;;;;;;;9.27;7.55;;;32.80;60.70;;;;;;4981885;28;20031;-84
2023/07/09 12:14:22;;;;;;;10.65;8.05;;;33.00;59.30;;;;;;4967420;28;20046;-86
2023/07/09 12:16:50;;;;;;;9.82;6.97;;;33.00;59.40;;;;;;4982839;28;20119;-84
2023/07/09 12:19:22;;;;;;;11.40;6.55;;;33.20;59.80;;;;;;4981300;28;20033;-85
2023/07/09 12:21:57;;;;;;;9.93;6.75;;;33.40;59.00;;;;;;4964536;28;20023;-85
2023/07/09 12:24:24;;;;;;;8.63;6.68;;;33.50;59.20;;;;;;4982531;28;20027;-85
2023/07/09 12:27:18;;;;;;;14.90;8.00;;;33.60;58.40;;;;;;4963783;28;20043;-86
2023/07/09 12:29:45;;;;;;;13.60;7.80;;;33.70;57.50;;;;;;4964566;28;20035;-87
2023/07/09 12:32:13;;;;;;;9.25;6.93;;;33.80;57.30;;;;;;4965510;28;20023;-86
2023/07/09 12:34:39;;;;;;;13.98;7.18;;;33.80;57.80;;;;;;4984000;28;20063;-85
2023/07/09 12:37:08;;;;;;;11.82;7.25;;;33.80;58.40;;;;;;4982923;28;20034;-85
2023/07/09 12:39:34;;;;;;;12.15;8.10;;;33.80;58.00;;;;;;4983107;28;20023;-85
2023/07/09 12:42:02;;;;;;;10.73;7.15;;;33.80;58.40;;;;;;4965780;28;20434;-84
2023/07/09 12:44:32;;;;;;;7.53;6.45;;;33.80;57.30;;;;;;4983974;28;20062;-84
2023/07/09 12:46:58;;;;;;;10.60;7.07;;;33.80;57.40;;;;;;4983766;28;20027;-85
2023/07/09 12:49:25;;;;;;;11.25;6.60;;;33.90;57.50;;;;;;4965957;28;20042;-85
2023/07/09 12:51:56;;;;;;;13.18;7.35;;;34.10;56.80;;;;;;4948470;28;20027;-85